Time;durP1;ratioP1;P1;durP2;ratioP2;P2;SDS_P1;SDS_P2;PMS_P1;PMS_P2;Temp;Humidity;BMP_temperature;BMP_pressure;BME280_temperature;BME280_humidity;BME280_pressure;Samples;Min_cycle;Max_cycle;Signal;HPM_P1;HPM_P2
2021/08/02 00:00:20;;;;;;;7.82;2.38;;;;;;;;;;4974753;28;20833;-56
2021/08/02 00:02:45;;;;;;;3.97;2.38;;;;;;;;;;4989545;28;20187;-55
2021/08/02 00:05:10;;;;;;;2.90;2.10;;;;;;;;;;4991533;28;20212;-55
2021/08/02 00:07:37;;;;;;;10.07;2.85;;;;;;;;;;4979040;28;20431;-55
2021/08/02 00:10:07;;;;;;;2.95;2.17;;;;;;;;;;4975649;28;20283;-54
2021/08/02 00:12:34;;;;;;;6.60;2.78;;;;;;;;;;4988397;28;20203;-55
2021/08/02 00:15:00;;;;;;;3.35;2.55;;;;;;;;;;4987125;28;20187;-55
2021/08/02 00:17:25;;;;;;;5.47;2.67;;;;;;;;;;4974053;28;20644;-54
2021/08/02 00:19:52;;;;;;;3.40;2.80;;;;;;;;;;4992281;28;20261;-55
2021/08/02 00:22:17;;;;;;;6.53;3.08;;;;;;;;;;5002917;28;20195;-55
2021/08/02 00:24:42;;;;;;;4.38;3.28;;;;;;;;;;4973525;28;20223;-53
2021/08/02 00:27:08;;;;;;;4.80;3.75;;;;;;;;;;4988099;28;20191;-55
2021/08/02 00:29:33;;;;;;;3.80;3.28;;;;;;;;;;4987147;28;20287;-55
2021/08/02 00:32:01;;;;;;;4.25;3.47;;;;;;;;;;4991380;28;20180;-55
2021/08/02 00:34:26;;;;;;;3.60;3.10;;;;;;;;;;4988327;28;20176;-54
2021/08/02 00:36:57;;;;;;;3.60;3.30;;;;;;;;;;4987634;28;20241;-54
2021/08/02 00:39:25;;;;;;;3.17;2.80;;;;;;;;;;4990406;28;20200;-55
2021/08/02 00:42:09;;;;;;;4.90;2.88;;;;;;;;;;4990724;28;20187;-55
2021/08/02 00:44:56;;;;;;;7.70;3.47;;;;;;;;;;4991964;28;20262;-54
2021/08/02 00:47:23;;;;;;;3.65;2.63;;;;;;;;;;4984870;28;20199;-53
2021/08/02 00:49:55;;;;;;;5.03;2.72;;;;;;;;;;4988108;28;20243;-55
2021/08/02 00:52:21;;;;;;;6.82;2.80;;;;;;;;;;4988494;28;20196;-55
2021/08/02 00:54:47;;;;;;;4.70;3.15;;;;;;;;;;4988491;28;20574;-56
2021/08/02 00:57:15;;;;;;;3.53;2.72;;;;;;;;;;4972699;28;20219;-55
2021/08/02 00:59:42;;;;;;;3.10;2.55;;;;;;;;;;4987842;28;20714;-55
2021/08/02 01:02:08;;;;;;;2.70;2.50;;;;;;;;;;4987797;28;20561;-54
2021/08/02 01:04:36;;;;;;;2.40;2.20;;;;;;;;;;4975705;28;20293;-55
2021/08/02 01:07:01;;;;;;;5.30;2.50;;;;;;;;;;4977656;28;20182;-56
2021/08/02 01:09:27;;;;;;;4.55;2.20;;;;;;;;;;4973274;28;20208;-53
2021/08/02 01:11:54;;;;;;;5.95;2.20;;;;;;;;;;4991297;28;20175;-55
2021/08/02 01:14:20;;;;;;;2.88;2.28;;;;;;;;;;4994420;28;20183;-54
2021/08/02 01:16:46;;;;;;;4.53;2.30;;;;;;;;;;4996066;28;20210;-55
2021/08/02 01:19:11;;;;;;;5.03;2.08;;;;;;;;;;4991316;28;20226;-55
2021/08/02 01:21:38;;;;;;;4.20;2.30;;;;;;;;;;4989745;28;20652;-55
2021/08/02 01:24:05;;;;;;;2.75;1.95;;;;;;;;;;4972224;28;20188;-55
2021/08/02 01:26:42;;;;;;;5.25;2.28;;;;;;;;;;4977643;28;20766;-54
2021/08/02 01:29:26;;;;;;;9.18;2.50;;;;;;;;;;4988489;28;20582;-55
2021/08/02 01:31:51;;;;;;;2.72;2.10;;;;;;;;;;4987897;28;20191;-55
2021/08/02 01:34:16;;;;;;;2.83;2.20;;;;;;;;;;4987493;28;20287;-55
2021/08/02 01:36:41;;;;;;;3.05;1.98;;;;;;;;;;4989437;28;20184;-55
2021/08/02 01:39:06;;;;;;;5.15;1.92;;;;;;;;;;4987494;28;20413;-55
2021/08/02 01:41:32;;;;;;;3.40;2.10;;;;;;;;;;4989830;28;20279;-55
2021/08/02 01:43:57;;;;;;;3.25;1.90;;;;;;;;;;4990422;28;20184;-55
2021/08/02 01:46:47;;;;;;;4.70;1.88;;;;;;;;;;4973150;28;20565;-55
2021/08/02 01:49:16;;;;;;;3.45;1.85;;;;;;;;;;4985291;28;20291;-55
2021/08/02 01:51:50;;;;;;;4.53;1.85;;;;;;;;;;4989316;28;20181;-53
2021/08/02 01:54:15;;;;;;;2.80;1.55;;;;;;;;;;4988678;28;20175;-55
2021/08/02 01:57:03;;;;;;;4.90;1.90;;;;;;;;;;4989637;28;20191;-55
2021/08/02 01:59:31;;;;;;;3.75;1.75;;;;;;;;;;4969953;28;20295;-55
2021/08/02 02:01:57;;;;;;;2.15;1.80;;;;;;;;;;4988269;28;20184;-55
2021/08/02 02:04:27;;;;;;;4.78;1.77;;;;;;;;;;4974183;28;20288;-55
2021/08/02 02:06:54;;;;;;;3.28;2.00;;;;;;;;;;4989266;28;20188;-54
2021/08/02 02:09:19;;;;;;;4.40;2.15;;;;;;;;;;4988708;28;20204;-55
2021/08/02 02:11:45;;;;;;;3.58;1.70;;;;;;;;;;4988338;28;20184;-54
2021/08/02 02:14:11;;;;;;;5.00;2.05;;;;;;;;;;4988164;28;20176;-55
2021/08/02 02:16:37;;;;;;;5.93;2.17;;;;;;;;;;4991348;28;20272;-53
2021/08/02 02:19:04;;;;;;;7.05;1.73;;;;;;;;;;4973942;28;20204;-55
2021/08/02 02:21:30;;;;;;;4.10;2.03;;;;;;;;;;4975084;28;20290;-56
2021/08/02 02:23:56;;;;;;;4.28;2.30;;;;;;;;;;4992945;28;20260;-55
2021/08/02 02:26:22;;;;;;;5.82;2.85;;;;;;;;;;4988811;28;20748;-56
2021/08/02 02:28:47;;;;;;;4.50;2.53;;;;;;;;;;4990049;28;20197;-54
2021/08/02 02:31:13;;;;;;;7.32;3.25;;;;;;;;;;4973801;28;20286;-55
2021/08/02 02:33:40;;;;;;;4.68;3.20;;;;;;;;;;4990496;28;20212;-55
2021/08/02 02:36:05;;;;;;;5.53;3.70;;;;;;;;;;4974758;28;20192;-55
2021/08/02 02:38:31;;;;;;;5.45;2.70;;;;;;;;;;4992048;28;20744;-55
2021/08/02 02:40:57;;;;;;;3.60;2.75;;;;;;;;;;4988053;28;20911;-55
2021/08/02 02:43:23;;;;;;;5.85;2.30;;;;;;;;;;4989674;28;20251;-55
2021/08/02 02:45:49;;;;;;;6.75;2.00;;;;;;;;;;4990287;28;20238;-55
2021/08/02 02:48:14;;;;;;;4.57;2.05;;;;;;;;;;4987190;28;20204;-55
2021/08/02 02:50:41;;;;;;;4.45;2.30;;;;;;;;;;4991495;28;20187;-55
2021/08/02 02:53:06;;;;;;;8.18;2.72;;;;;;;;;;4989237;28;20235;-54
2021/08/02 02:55:32;;;;;;;4.38;2.10;;;;;;;;;;4989005;28;20192;-54
2021/08/02 02:57:58;;;;;;;2.53;1.95;;;;;;;;;;4988286;28;20199;-56
2021/08/02 03:00:23;;;;;;;4.80;2.30;;;;;;;;;;4990181;28;20279;-53
2021/08/02 03:02:49;;;;;;;6.70;2.55;;;;;;;;;;4991059;28;20620;-55
2021/08/02 03:05:15;;;;;;;3.35;2.53;;;;;;;;;;4987823;28;20204;-55
2021/08/02 03:07:40;;;;;;;4.00;2.65;;;;;;;;;;4972181;28;20674;-56
2021/08/02 03:10:06;;;;;;;7.60;2.90;;;;;;;;;;4972122;28;20208;-56
2021/08/02 03:12:34;;;;;;;6.30;3.17;;;;;;;;;;4972431;28;20219;-56
2021/08/02 03:14:59;;;;;;;5.95;2.90;;;;;;;;;;4988610;28;20184;-55
2021/08/02 03:17:24;;;;;;;5.57;2.70;;;;;;;;;;4985163;28;20711;-54
2021/08/02 03:19:49;;;;;;;5.15;2.78;;;;;;;;;;4987581;28;20203;-54
2021/08/02 03:22:34;;;;;;;5.95;2.70;;;;;;;;;;4970101;28;20183;-53
2021/08/02 03:25:04;;;;;;;9.02;2.70;;;;;;;;;;4970780;28;20200;-55
2021/08/02 03:27:34;;;;;;;5.85;2.38;;;;;;;;;;4987872;28;20215;-55
2021/08/02 03:30:02;;;;;;;9.75;2.40;;;;;;;;;;4968509;28;20210;-55
2021/08/02 03:32:28;;;;;;;8.68;2.70;;;;;;;;;;4988663;28;20204;-54
2021/08/02 03:34:55;;;;;;;5.90;2.60;;;;;;;;;;4992153;28;20175;-53
2021/08/02 03:37:23;;;;;;;8.00;2.17;;;;;;;;;;4989481;28;20187;-55
2021/08/02 03:39:48;;;;;;;10.98;3.10;;;;;;;;;;4988351;28;20234;-55
2021/08/02 03:42:14;;;;;;;8.95;3.22;;;;;;;;;;4970836;28;20617;-55
2021/08/02 03:44:40;;;;;;;7.07;2.92;;;;;;;;;;4990562;28;20211;-55
2021/08/02 03:47:05;;;;;;;6.18;3.50;;;;;;;;;;4956543;28;20268;-55
2021/08/02 03:49:31;;;;;;;15.13;3.75;;;;;;;;;;4987855;28;20219;-54
2021/08/02 03:51:57;;;;;;;10.93;3.47;;;;;;;;;;4988744;28;20637;-55
2021/08/02 03:54:24;;;;;;;8.00;3.45;;;;;;;;;;4990134;28;20195;-56
2021/08/02 03:56:50;;;;;;;6.78;3.08;;;;;;;;;;4986436;28;20192;-54
2021/08/02 03:59:16;;;;;;;6.50;3.20;;;;;;;;;;4988326;28;20952;-55
2021/08/02 04:01:42;;;;;;;5.97;3.17;;;;;;;;;;4992668;28;20267;-54
2021/08/02 04:04:08;;;;;;;8.30;2.95;;;;;;;;;;4986054;28;20192;-55
2021/08/02 04:06:33;;;;;;;5.50;2.72;;;;;;;;;;4968199;28;20561;-55
2021/08/02 04:08:59;;;;;;;8.25;2.55;;;;;;;;;;4987740;28;20690;-56
2021/08/02 04:11:24;;;;;;;5.18;2.22;;;;;;;;;;4972707;28;20183;-53
2021/08/02 04:13:49;;;;;;;4.80;2.27;;;;;;;;;;4986694;28;20295;-54
2021/08/02 04:16:14;;;;;;;5.20;2.50;;;;;;;;;;4988638;28;20274;-55
2021/08/02 04:18:40;;;;;;;6.05;2.47;;;;;;;;;;4989922;28;20211;-55
2021/08/02 04:21:05;;;;;;;4.33;2.60;;;;;;;;;;4988081;28;20192;-55
2021/08/02 04:23:30;;;;;;;8.90;2.43;;;;;;;;;;4973854;28;20372;-56
2021/08/02 04:25:55;;;;;;;4.32;2.70;;;;;;;;;;4989102;28;20738;-55
2021/08/02 04:28:21;;;;;;;5.00;2.77;;;;;;;;;;4986825;28;20695;-55
2021/08/02 04:30:46;;;;;;;3.85;2.63;;;;;;;;;;4985254;28;20180;-55
2021/08/02 04:33:11;;;;;;;4.50;2.15;;;;;;;;;;4986674;28;20187;-55
2021/08/02 04:35:36;;;;;;;3.03;2.20;;;;;;;;;;4987692;28;20184;-53
2021/08/02 04:38:01;;;;;;;7.10;2.90;;;;;;;;;;4990352;28;20693;-54
2021/08/02 04:40:26;;;;;;;7.60;2.60;;;;;;;;;;4988399;28;20248;-55
2021/08/02 04:42:52;;;;;;;5.20;3.00;;;;;;;;;;4986683;28;20192;-55
2021/08/02 04:45:17;;;;;;;5.80;2.63;;;;;;;;;;4989270;28;20606;-55
2021/08/02 04:47:42;;;;;;;6.40;3.03;;;;;;;;;;4988074;28;20430;-53
2021/08/02 04:50:07;;;;;;;4.20;2.57;;;;;;;;;;4985063;28;20280;-54
2021/08/02 04:52:33;;;;;;;8.27;2.77;;;;;;;;;;4986876;28;20187;-55
2021/08/02 04:54:58;;;;;;;4.07;2.70;;;;;;;;;;4969902;28;20195;-55
2021/08/02 04:57:23;;;;;;;6.43;2.60;;;;;;;;;;4981258;28;20244;-55
2021/08/02 04:59:48;;;;;;;3.47;3.00;;;;;;;;;;4984145;28;20399;-56
2021/08/02 05:02:13;;;;;;;4.07;2.60;;;;;;;;;;4987627;28;20188;-55
2021/08/02 05:04:39;;;;;;;6.40;2.80;;;;;;;;;;4994674;28;20200;-55
2021/08/02 05:07:04;;;;;;;7.83;2.87;;;;;;;;;;4987020;28;20207;-56
2021/08/02 05:09:29;;;;;;;3.67;2.60;;;;;;;;;;4986205;28;20633;-55
2021/08/02 05:11:54;;;;;;;5.88;2.75;;;;;;;;;;4986705;28;20187;-56
2021/08/02 05:14:19;;;;;;;5.53;2.90;;;;;;;;;;4987308;28;20904;-56
2021/08/02 05:16:45;;;;;;;5.03;2.45;;;;;;;;;;4988033;28;20266;-56
2021/08/02 05:19:11;;;;;;;4.03;2.70;;;;;;;;;;4986224;28;20200;-55
2021/08/02 05:21:36;;;;;;;6.23;3.13;;;;;;;;;;4996138;28;20176;-55
2021/08/02 05:24:01;;;;;;;4.40;3.00;;;;;;;;;;4985642;28;20184;-54
2021/08/02 05:26:26;;;;;;;5.10;3.03;;;;;;;;;;4987028;28;20189;-54
2021/08/02 05:28:52;;;;;;;5.80;3.20;;;;;;;;;;4972509;28;20196;-56
2021/08/02 05:31:17;;;;;;;5.13;2.87;;;;;;;;;;4990214;28;20722;-56
2021/08/02 05:33:42;;;;;;;6.03;2.67;;;;;;;;;;4992092;28;20183;-55
2021/08/02 05:36:07;;;;;;;3.13;2.72;;;;;;;;;;4993187;28;20184;-55
2021/08/02 05:38:33;;;;;;;3.93;2.80;;;;;;;;;;4992373;28;20689;-55
2021/08/02 05:40:58;;;;;;;4.47;2.53;;;;;;;;;;4992417;28;20784;-54
2021/08/02 05:43:24;;;;;;;4.60;2.38;;;;;;;;;;4992954;28;20216;-55
2021/08/02 05:45:50;;;;;;;5.80;2.15;;;;;;;;;;4993340;28;20226;-54
2021/08/02 05:48:15;;;;;;;5.35;2.28;;;;;;;;;;4986939;28;20631;-53
2021/08/02 05:50:40;;;;;;;4.53;2.38;;;;;;;;;;4977511;28;20240;-55
2021/08/02 05:53:05;;;;;;;2.58;2.15;;;;;;;;;;4975466;28;20715;-55
2021/08/02 05:55:30;;;;;;;4.50;2.03;;;;;;;;;;4975798;28;20188;-55
2021/08/02 05:57:55;;;;;;;2.40;1.90;;;;;;;;;;4993728;28;20750;-53
2021/08/02 06:00:22;;;;;;;4.40;2.10;;;;;;;;;;4976204;28;20180;-53
2021/08/02 06:02:48;;;;;;;3.60;2.05;;;;;;;;;;4994212;28;20192;-53
2021/08/02 06:05:13;;;;;;;2.80;1.80;;;;;;;;;;4987847;28;21107;-55
2021/08/02 06:07:42;;;;;;;7.13;2.20;;;;;;;;;;4976683;28;20199;-55
2021/08/02 06:10:07;;;;;;;5.78;2.05;;;;;;;;;;4987341;28;20612;-56
2021/08/02 06:12:33;;;;;;;6.82;2.03;;;;;;;;;;4990080;28;20184;-55
2021/08/02 06:14:58;;;;;;;2.73;1.60;;;;;;;;;;4992080;28;20226;-54
2021/08/02 06:17:23;;;;;;;2.75;1.63;;;;;;;;;;4989883;28;20680;-56
2021/08/02 06:19:48;;;;;;;5.15;1.92;;;;;;;;;;4972498;28;20251;-55
2021/08/02 06:22:13;;;;;;;3.20;1.52;;;;;;;;;;4992788;28;20212;-55
2021/08/02 06:24:39;;;;;;;3.83;1.53;;;;;;;;;;4994174;28;20718;-56
2021/08/02 06:27:04;;;;;;;5.73;1.67;;;;;;;;;;4990673;28;20187;-53
2021/08/02 06:29:29;;;;;;;5.47;1.63;;;;;;;;;;4993021;28;20783;-53
2021/08/02 06:31:55;;;;;;;3.28;1.20;;;;;;;;;;4993348;28;20239;-55
2021/08/02 06:34:20;;;;;;;1.85;1.20;;;;;;;;;;4990638;28;20255;-55
2021/08/02 06:36:45;;;;;;;5.07;1.58;;;;;;;;;;4991990;28;20184;-55
2021/08/02 06:39:10;;;;;;;5.43;1.77;;;;;;;;;;4989286;28;20732;-55
2021/08/02 06:41:35;;;;;;;4.28;1.45;;;;;;;;;;4991285;28;20209;-56
2021/08/02 06:44:00;;;;;;;4.50;1.33;;;;;;;;;;4992829;28;20180;-56
2021/08/02 06:46:26;;;;;;;2.22;1.38;;;;;;;;;;4991335;28;20211;-55
2021/08/02 06:48:51;;;;;;;6.97;1.52;;;;;;;;;;4994563;28;20230;-54
2021/08/02 06:51:18;;;;;;;3.28;1.30;;;;;;;;;;4989489;28;20191;-54
2021/08/02 06:53:43;;;;;;;3.20;1.35;;;;;;;;;;4990794;28;20460;-54
2021/08/02 06:56:09;;;;;;;7.85;1.90;;;;;;;;;;4993498;28;20168;-54
2021/08/02 06:58:34;;;;;;;2.22;1.40;;;;;;;;;;4992410;28;20215;-55
2021/08/02 07:00:59;;;;;;;7.10;1.40;;;;;;;;;;4991411;28;20192;-55
2021/08/02 07:03:24;;;;;;;1.85;1.23;;;;;;;;;;4992598;28;20187;-55
2021/08/02 07:05:49;;;;;;;4.82;1.45;;;;;;;;;;4988799;28;20235;-55
2021/08/02 07:08:14;;;;;;;4.90;2.03;;;;;;;;;;4975482;28;20227;-55
2021/08/02 07:10:40;;;;;;;5.63;1.50;;;;;;;;;;4990641;28;20186;-55
2021/08/02 07:13:05;;;;;;;4.10;1.30;;;;;;;;;;4991791;28;20180;-56
2021/08/02 07:15:30;;;;;;;2.28;1.45;;;;;;;;;;4990271;28;20192;-54
2021/08/02 07:17:55;;;;;;;3.63;1.45;;;;;;;;;;4990927;28;20183;-55
2021/08/02 07:20:20;;;;;;;3.30;1.48;;;;;;;;;;4987006;28;20180;-55
2021/08/02 07:22:46;;;;;;;5.45;1.63;;;;;;;;;;4991370;28;20599;-55
2021/08/02 07:25:11;;;;;;;3.17;1.20;;;;;;;;;;4986346;28;20259;-55
2021/08/02 07:27:38;;;;;;;1.75;1.13;;;;;;;;;;4987068;28;20220;-56
2021/08/02 07:30:04;;;;;;;4.18;1.42;;;;;;;;;;4987539;28;20227;-56
2021/08/02 07:32:29;;;;;;;6.45;1.25;;;;;;;;;;4988862;28;20180;-55
2021/08/02 07:34:54;;;;;;;4.33;1.27;;;;;;;;;;4987036;28;20551;-56
2021/08/02 07:37:19;;;;;;;2.97;1.30;;;;;;;;;;4988010;28;20467;-56
2021/08/02 07:39:44;;;;;;;2.10;1.40;;;;;;;;;;4991435;28;20361;-56
2021/08/02 07:42:10;;;;;;;3.97;1.47;;;;;;;;;;4986424;28;20450;-56
2021/08/02 07:44:35;;;;;;;2.75;1.23;;;;;;;;;;4983775;28;20473;-55
2021/08/02 07:47:00;;;;;;;2.70;1.20;;;;;;;;;;4988428;28;20208;-56
2021/08/02 07:49:25;;;;;;;2.40;1.13;;;;;;;;;;4989979;28;20282;-56
2021/08/02 07:51:50;;;;;;;3.83;1.30;;;;;;;;;;4970903;28;20885;-56
2021/08/02 07:54:15;;;;;;;3.60;1.60;;;;;;;;;;4986414;28;20196;-56
2021/08/02 07:56:41;;;;;;;5.85;1.35;;;;;;;;;;4987977;28;20423;-55
2021/08/02 07:59:06;;;;;;;4.87;1.30;;;;;;;;;;4987434;28;20199;-56
2021/08/02 08:01:31;;;;;;;5.70;1.50;;;;;;;;;;4987698;28;20416;-55
2021/08/02 08:03:56;;;;;;;2.00;1.33;;;;;;;;;;4985103;28;20227;-56
2021/08/02 08:06:21;;;;;;;3.42;1.45;;;;;;;;;;4989264;28;20200;-56
2021/08/02 08:08:47;;;;;;;3.03;1.38;;;;;;;;;;4988483;28;20212;-56
2021/08/02 08:11:12;;;;;;;3.78;1.33;;;;;;;;;;4985981;28;20579;-56
2021/08/02 08:13:38;;;;;;;3.33;1.40;;;;;;;;;;4988243;28;20192;-56
2021/08/02 08:16:03;;;;;;;2.70;1.40;;;;;;;;;;4987702;28;20220;-56
2021/08/02 08:18:29;;;;;;;9.02;1.23;;;;;;;;;;4986786;28;20212;-56
2021/08/02 08:20:55;;;;;;;3.03;1.30;;;;;;;;;;4986885;28;20188;-56
2021/08/02 08:23:20;;;;;;;3.13;1.47;;;;;;;;;;4989761;28;20189;-56
2021/08/02 08:25:45;;;;;;;3.60;1.47;;;;;;;;;;4986724;28;20465;-56
2021/08/02 08:28:10;;;;;;;2.33;1.23;;;;;;;;;;4985704;28;20214;-56
2021/08/02 08:30:36;;;;;;;1.85;1.25;;;;;;;;;;4987011;28;20186;-56
2021/08/02 08:33:01;;;;;;;2.92;1.30;;;;;;;;;;4982439;28;20188;-56
2021/08/02 08:35:26;;;;;;;2.38;1.50;;;;;;;;;;4986256;28;20238;-55
2021/08/02 08:37:51;;;;;;;3.43;1.30;;;;;;;;;;4986777;28;20626;-56
2021/08/02 08:40:17;;;;;;;2.00;1.20;;;;;;;;;;4984790;28;20180;-55
2021/08/02 08:42:42;;;;;;;4.60;1.25;;;;;;;;;;4985753;28;20856;-55
2021/08/02 08:45:09;;;;;;;3.78;1.30;;;;;;;;;;4985774;28;20207;-55
2021/08/02 08:47:35;;;;;;;4.03;1.63;;;;;;;;;;4988070;28;20652;-55
2021/08/02 08:50:01;;;;;;;2.63;1.40;;;;;;;;;;4990385;28;20439;-56
2021/08/02 08:52:26;;;;;;;4.38;1.30;;;;;;;;;;4988361;28;20180;-56
2021/08/02 08:54:51;;;;;;;7.40;1.60;;;;;;;;;;4985645;28;20311;-56
2021/08/02 08:57:17;;;;;;;4.65;1.60;;;;;;;;;;4987383;28;20192;-53
2021/08/02 08:59:48;;;;;;;3.53;1.10;;;;;;;;;;4988148;28;20220;-56
2021/08/02 09:02:14;;;;;;;2.78;1.05;;;;;;;;;;4987864;28;20921;-55
2021/08/02 09:04:40;;;;;;;5.30;1.30;;;;;;;;;;4986272;28;20287;-58
2021/08/02 09:07:05;;;;;;;4.30;1.20;;;;;;;;;;4991511;28;20186;-56
2021/08/02 09:09:32;;;;;;;3.60;1.38;;;;;;;;;;4991736;28;20196;-56
2021/08/02 09:12:03;;;;;;;3.28;1.08;;;;;;;;;;4990647;28;20192;-55
2021/08/02 09:14:29;;;;;;;2.40;1.05;;;;;;;;;;4972038;28;20183;-55
2021/08/02 09:16:57;;;;;;;1.10;1.00;;;;;;;;;;4991623;28;20320;-55
2021/08/02 09:19:22;;;;;;;1.63;1.00;;;;;;;;;;4974610;28;20450;-55
2021/08/02 09:21:50;;;;;;;1.70;1.10;;;;;;;;;;4971577;28;20766;-55
2021/08/02 09:24:27;;;;;;;3.28;1.08;;;;;;;;;;4990238;28;20422;-54
2021/08/02 09:26:52;;;;;;;2.83;1.00;;;;;;;;;;4992736;28;20180;-56
2021/08/02 09:29:25;;;;;;;2.15;0.90;;;;;;;;;;4988979;28;20246;-55
2021/08/02 09:31:51;;;;;;;4.63;1.10;;;;;;;;;;4987975;28;20211;-56
2021/08/02 09:34:16;;;;;;;3.63;0.90;;;;;;;;;;4993742;28;20214;-55
2021/08/02 09:36:42;;;;;;;1.00;0.90;;;;;;;;;;4992406;28;20254;-55
2021/08/02 09:39:09;;;;;;;4.18;1.00;;;;;;;;;;4987453;28;20268;-56
2021/08/02 09:41:34;;;;;;;2.00;1.00;;;;;;;;;;4991800;28;20192;-55
2021/08/02 09:43:59;;;;;;;1.90;1.10;;;;;;;;;;4991863;28;20235;-56
2021/08/02 09:46:24;;;;;;;2.70;1.10;;;;;;;;;;4989220;28;20212;-55
2021/08/02 09:48:49;;;;;;;2.55;1.00;;;;;;;;;;4985190;28;20820;-56
2021/08/02 09:51:16;;;;;;;1.92;0.90;;;;;;;;;;4988743;28;20263;-55
2021/08/02 09:53:43;;;;;;;7.10;0.80;;;;;;;;;;4974588;28;20835;-56
2021/08/02 09:56:10;;;;;;;2.95;1.10;;;;;;;;;;4983621;28;20597;-55
2021/08/02 09:58:36;;;;;;;2.20;1.10;;;;;;;;;;4988626;28;20236;-54
2021/08/02 10:01:01;;;;;;;1.35;1.10;;;;;;;;;;4988307;28;20192;-55
2021/08/02 10:03:26;;;;;;;6.25;1.00;;;;;;;;;;4988853;28;20338;-56
2021/08/02 10:05:52;;;;;;;9.63;1.27;;;;;;;;;;4972738;28;20204;-55
2021/08/02 10:08:17;;;;;;;2.22;1.00;;;;;;;;;;4992180;28;20207;-56
2021/08/02 10:10:42;;;;;;;2.92;1.15;;;;;;;;;;4987856;28;20283;-56
2021/08/02 10:13:08;;;;;;;3.00;1.10;;;;;;;;;;4989268;28;20891;-55
2021/08/02 10:15:34;;;;;;;3.97;1.00;;;;;;;;;;4987986;28;20207;-55
2021/08/02 10:18:03;;;;;;;2.67;1.10;;;;;;;;;;4988653;28;20184;-55
2021/08/02 10:20:30;;;;;;;3.92;1.27;;;;;;;;;;4988228;28;20219;-56
2021/08/02 10:22:56;;;;;;;2.90;1.00;;;;;;;;;;4993475;28;20184;-55
2021/08/02 10:25:41;;;;;;;2.38;0.88;;;;;;;;;;4991084;28;20200;-55
2021/08/02 10:28:11;;;;;;;2.92;1.00;;;;;;;;;;4987761;28;20278;-54
2021/08/02 10:30:37;;;;;;;5.00;1.08;;;;;;;;;;4971920;28;20181;-56
2021/08/02 10:33:02;;;;;;;2.20;1.00;;;;;;;;;;4992072;28;20696;-55
2021/08/02 10:35:35;;;;;;;2.03;1.00;;;;;;;;;;4991851;28;20195;-55
2021/08/02 10:38:01;;;;;;;3.05;0.93;;;;;;;;;;4973887;28;20188;-57
2021/08/02 10:40:27;;;;;;;3.63;1.00;;;;;;;;;;4990497;28;20223;-55
2021/08/02 10:42:52;;;;;;;1.85;0.82;;;;;;;;;;4991259;28;20549;-55
2021/08/02 10:45:33;;;;;;;2.22;1.10;;;;;;;;;;4988334;28;20208;-55
2021/08/02 10:47:59;;;;;;;1.55;0.88;;;;;;;;;;4990064;28;20227;-54
2021/08/02 10:50:25;;;;;;;1.98;1.00;;;;;;;;;;4987422;28;20177;-56
2021/08/02 10:52:50;;;;;;;3.28;1.00;;;;;;;;;;4989612;28;20818;-55
2021/08/02 10:55:16;;;;;;;2.40;1.00;;;;;;;;;;4989620;28;20199;-55
2021/08/02 10:57:41;;;;;;;2.95;1.30;;;;;;;;;;4982324;28;20180;-56
2021/08/02 11:00:27;;;;;;;3.83;1.13;;;;;;;;;;4988165;28;20250;-56
2021/08/02 11:02:56;;;;;;;6.60;1.30;;;;;;;;;;4986528;28;20211;-54
2021/08/02 11:05:22;;;;;;;2.22;1.20;;;;;;;;;;4988753;28;20211;-55
2021/08/02 11:07:47;;;;;;;2.75;1.10;;;;;;;;;;4991373;28;20184;-54
2021/08/02 11:10:15;;;;;;;1.95;1.17;;;;;;;;;;4991396;28;20211;-55
2021/08/02 11:12:42;;;;;;;1.98;1.30;;;;;;;;;;4987957;28;20724;-55
2021/08/02 11:15:07;;;;;;;2.65;1.02;;;;;;;;;;4990978;28;20187;-56
2021/08/02 11:17:32;;;;;;;3.58;1.10;;;;;;;;;;4972148;28;20184;-56
2021/08/02 11:32:10;;;;;;;3.35;1.20;;;;;;;;;;4972507;28;20682;-55
2021/08/02 11:34:36;;;;;;;1.35;1.02;;;;;;;;;;4973302;28;20746;-55
2021/08/02 11:37:01;;;;;;;1.27;0.90;;;;;;;;;;4975336;28;20196;-56
2021/08/02 11:39:27;;;;;;;4.93;1.23;;;;;;;;;;4980709;28;20204;-56
2021/08/02 11:42:08;;;;;;;2.00;1.10;;;;;;;;;;4989204;28;20242;-55
2021/08/02 11:44:35;;;;;;;2.05;1.15;;;;;;;;;;4984385;28;20192;-54
2021/08/02 11:47:01;;;;;;;1.23;1.00;;;;;;;;;;4986142;28;20203;-54
2021/08/02 11:49:27;;;;;;;2.97;1.02;;;;;;;;;;4969816;28;20215;-54
2021/08/02 11:51:53;;;;;;;2.05;1.10;;;;;;;;;;4986310;28;20176;-55
2021/08/02 11:54:19;;;;;;;2.55;1.20;;;;;;;;;;4989852;28;20703;-55
2021/08/02 11:56:44;;;;;;;4.15;1.38;;;;;;;;;;4990169;28;20228;-55
2021/08/02 11:59:17;;;;;;;1.70;1.00;;;;;;;;;;4972146;28;20285;-56
2021/08/02 12:01:52;;;;;;;1.38;1.10;;;;;;;;;;4986872;28;20439;-56
2021/08/02 12:04:18;;;;;;;3.38;1.10;;;;;;;;;;4970635;28;20821;-55
2021/08/02 12:07:01;;;;;;;1.83;1.10;;;;;;;;;;4982639;28;20176;-56
2021/08/02 12:09:29;;;;;;;2.35;1.00;;;;;;;;;;4995423;28;20860;-56
2021/08/02 12:11:54;;;;;;;5.63;1.15;;;;;;;;;;4985318;28;20192;-56
2021/08/02 12:14:23;;;;;;;2.17;1.10;;;;;;;;;;4984035;28;20183;-54
2021/08/02 12:16:59;;;;;;;3.00;0.95;;;;;;;;;;4981512;28;20191;-55
2021/08/02 12:19:24;;;;;;;3.17;1.33;;;;;;;;;;4986035;28;20249;-55
2021/08/02 12:21:56;;;;;;;2.07;1.00;;;;;;;;;;4984505;28;20188;-56
2021/08/02 12:24:21;;;;;;;8.23;1.25;;;;;;;;;;4983762;28;20427;-55
2021/08/02 12:26:50;;;;;;;5.95;1.45;;;;;;;;;;4987729;28;20223;-56
2021/08/02 12:29:19;;;;;;;1.75;1.00;;;;;;;;;;4967988;28;20208;-57
2021/08/02 12:31:52;;;;;;;4.47;1.20;;;;;;;;;;4984104;28;20679;-56
2021/08/02 12:34:17;;;;;;;3.17;1.30;;;;;;;;;;4984453;28;20184;-56
2021/08/02 12:36:42;;;;;;;5.73;1.40;;;;;;;;;;4982691;28;20665;-56
2021/08/02 12:39:07;;;;;;;5.40;1.38;;;;;;;;;;4983483;28;20453;-56
2021/08/02 12:41:36;;;;;;;2.63;1.40;;;;;;;;;;4984993;28;20191;-56
2021/08/02 12:44:01;;;;;;;2.33;1.20;;;;;;;;;;4986646;28;20182;-54
2021/08/02 12:46:26;;;;;;;2.83;1.30;;;;;;;;;;4986841;28;20219;-56
2021/08/02 12:48:51;;;;;;;2.45;1.05;;;;;;;;;;4987189;28;20204;-56
2021/08/02 12:51:18;;;;;;;1.30;0.80;;;;;;;;;;4985394;28;20179;-55
2021/08/02 12:53:45;;;;;;;5.82;1.40;;;;;;;;;;4981746;28;20430;-56
2021/08/02 12:56:10;;;;;;;6.75;1.30;;;;;;;;;;4971461;28;20188;-55
2021/08/02 12:58:35;;;;;;;3.15;1.13;;;;;;;;;;4983128;28;20215;-56
2021/08/02 13:01:00;;;;;;;2.75;1.00;;;;;;;;;;4983268;28;20223;-56
2021/08/02 13:03:25;;;;;;;1.45;1.00;;;;;;;;;;4984327;28;20260;-57
2021/08/02 13:05:51;;;;;;;3.05;1.13;;;;;;;;;;4973841;28;20690;-55
2021/08/02 13:08:16;;;;;;;2.33;1.40;;;;;;;;;;4984999;28;20231;-56
2021/08/02 13:10:41;;;;;;;6.13;1.35;;;;;;;;;;4985526;28;20187;-55
2021/08/02 13:13:06;;;;;;;4.13;1.50;;;;;;;;;;4981236;28;20206;-56
2021/08/02 13:15:32;;;;;;;3.15;1.20;;;;;;;;;;4966955;28;20458;-56
2021/08/02 13:17:57;;;;;;;1.55;1.00;;;;;;;;;;4987060;28;20188;-56
2021/08/02 13:20:22;;;;;;;1.55;1.10;;;;;;;;;;4983683;28;20235;-56
2021/08/02 13:22:53;;;;;;;2.90;1.33;;;;;;;;;;4985450;28;20259;-55
2021/08/02 13:28:03;;;;;;;1.92;1.20;;;;;;;;;;4985420;28;20216;-56
2021/08/02 13:30:28;;;;;;;3.45;1.25;;;;;;;;;;4987429;28;20196;-56
2021/08/02 13:32:53;;;;;;;2.35;1.20;;;;;;;;;;4983956;28;20582;-56
2021/08/02 13:35:18;;;;;;;7.55;1.30;;;;;;;;;;4984227;28;20560;-55
2021/08/02 13:37:43;;;;;;;2.95;1.10;;;;;;;;;;4984610;28;20200;-56
2021/08/02 13:40:09;;;;;;;3.73;1.27;;;;;;;;;;4982880;28;20199;-55
2021/08/02 13:42:34;;;;;;;2.15;1.00;;;;;;;;;;4981925;28;21163;-56
2021/08/02 13:44:59;;;;;;;3.53;1.02;;;;;;;;;;4984758;28;20287;-55
2021/08/02 13:47:27;;;;;;;4.35;1.05;;;;;;;;;;4983355;28;20774;-56
2021/08/02 13:49:52;;;;;;;4.25;1.13;;;;;;;;;;4984470;28;20212;-53
2021/08/02 13:52:18;;;;;;;16.45;1.40;;;;;;;;;;4985828;28;20180;-54
2021/08/02 13:54:43;;;;;;;6.17;1.40;;;;;;;;;;4990230;28;20766;-55
2021/08/02 13:57:10;;;;;;;5.03;1.57;;;;;;;;;;4988972;28;20419;-56
2021/08/02 13:59:35;;;;;;;3.65;1.70;;;;;;;;;;4988075;28;20467;-55
2021/08/02 14:02:00;;;;;;;6.27;1.37;;;;;;;;;;4984086;28;20184;-56
2021/08/02 14:04:26;;;;;;;4.35;2.10;;;;;;;;;;4986241;28;20431;-56
2021/08/02 14:06:51;;;;;;;24.13;2.47;;;;;;;;;;4990962;28;20188;-56
2021/08/02 14:09:16;;;;;;;2.38;1.33;;;;;;;;;;4988434;28;20450;-55
2021/08/02 14:11:46;;;;;;;3.28;1.40;;;;;;;;;;4986696;28;20191;-54
2021/08/02 14:14:12;;;;;;;3.85;1.52;;;;;;;;;;4985713;28;20183;-55
2021/08/02 14:16:38;;;;;;;3.55;1.52;;;;;;;;;;4987117;28;20207;-57
2021/08/02 14:19:13;;;;;;;2.70;1.38;;;;;;;;;;4972119;28;20233;-54
2021/08/02 14:21:39;;;;;;;2.33;1.05;;;;;;;;;;4986468;28;20180;-56
2021/08/02 14:24:05;;;;;;;3.80;1.30;;;;;;;;;;4988304;28;20246;-55
2021/08/02 14:26:31;;;;;;;2.60;1.10;;;;;;;;;;4987667;28;20615;-56
2021/08/02 14:28:56;;;;;;;3.38;1.30;;;;;;;;;;4989925;28;20196;-56
2021/08/02 14:31:22;;;;;;;2.45;1.30;;;;;;;;;;4989528;28;20176;-56
2021/08/02 14:33:48;;;;;;;1.90;1.23;;;;;;;;;;4989585;28;20804;-55
2021/08/02 14:36:13;;;;;;;3.63;1.42;;;;;;;;;;4987952;28;20188;-56
2021/08/02 14:38:42;;;;;;;4.03;1.27;;;;;;;;;;4984225;28;20218;-55
2021/08/02 14:41:08;;;;;;;8.98;1.75;;;;;;;;;;4989521;28;20183;-55
2021/08/02 14:43:33;;;;;;;1.35;1.25;;;;;;;;;;4992832;28;20192;-55
2021/08/02 14:45:59;;;;;;;4.10;1.30;;;;;;;;;;4985674;28;20254;-55
2021/08/02 14:48:25;;;;;;;3.42;1.48;;;;;;;;;;4988767;28;20230;-55
2021/08/02 14:50:57;;;;;;;7.30;1.40;;;;;;;;;;4986875;28;20176;-55
2021/08/02 14:53:22;;;;;;;2.97;1.48;;;;;;;;;;4988288;28;20195;-55